Terminal Aerodrome Forecast
Issued by NWS

Home | Current Version | Previous Version | Text Only | Print | Product List | Glossary On
Versions: 1 2 3 4 5 6 7 8 9 10 11
603
FTUS44 KSJT 251124
TAFBBD
TAF
KBBD 251124Z 2512/2612 16005KT P6SM SCT018
      TEMPO 2512/2515 BKN018
     FM251500 17008KT P6SM SKC
     FM251800 16009KT P6SM FEW060
     FM260000 13007KT P6SM SKC
      AMD NOT SKED=

USA.gov is the U.S. government's official web portal to all federal, state and local government web resources and services.